Time;durP1;ratioP1;P1;durP2;ratioP2;P2;SDS_P1;SDS_P2;PMS_P1;PMS_P2;Temp;Humidity;BMP_temperature;BMP_pressure;BME280_temperature;BME280_humidity;BME280_pressure;Samples;Min_cycle;Max_cycle;Signal;HPM_P1;HPM_P2
2023/04/14 00:00:12;;;;;;;2.00;1.10;;;;;;;10.73;70.22;98221.03;5110426;28;20197;-76
2023/04/14 00:02:38;;;;;;;1.10;0.80;;;;;;;10.73;70.36;98218.50;5109823;28;20213;-77
2023/04/14 00:05:07;;;;;;;1.17;0.90;;;;;;;10.79;70.27;98207.72;5110138;28;20197;-73
2023/04/14 00:07:33;;;;;;;1.13;1.03;;;;;;;10.70;70.69;98214.44;5110190;28;20217;-76
2023/04/14 00:10:00;;;;;;;1.53;1.03;;;;;;;10.61;71.40;98210.94;5110249;28;20197;-73
2023/04/14 00:12:28;;;;;;;1.83;0.80;;;;;;;10.58;72.38;98211.19;5110018;28;20217;-73
2023/04/14 00:14:56;;;;;;;1.40;1.30;;;;;;;10.50;73.20;98213.63;5109924;28;20709;-73
2023/04/14 00:17:23;;;;;;;0.83;0.83;;;;;;;10.47;73.58;98202.84;5109951;28;20250;-76
2023/04/14 00:19:49;;;;;;;2.53;1.20;;;;;;;10.50;73.82;98205.97;5109990;28;20285;-76
2023/04/14 00:22:17;;;;;;;0.97;0.90;;;;;;;10.47;73.90;98193.47;5109752;28;20217;-76
2023/04/14 00:24:44;;;;;;;6.60;1.50;;;;;;;10.46;74.91;98196.94;5110619;28;20200;-76
2023/04/14 00:27:10;;;;;;;1.60;1.43;;;;;;;10.34;75.75;98195.44;5114108;28;20213;-76
2023/04/14 00:29:38;;;;;;;3.10;1.97;;;;;;;10.26;77.01;98192.69;5114095;28;20205;-73
2023/04/14 00:32:06;;;;;;;4.10;1.53;;;;;;;10.17;78.75;98187.41;5113926;28;20302;-76
2023/04/14 00:34:33;;;;;;;1.27;1.07;;;;;;;9.90;80.10;98189.75;5114013;28;20258;-73
2023/04/14 00:37:00;;;;;;;1.50;1.20;;;;;;;9.97;80.63;98186.53;5113878;28;20304;-73
2023/04/14 00:39:27;;;;;;;2.50;1.70;;;;;;;9.93;81.79;98179.28;5113577;28;20259;-76
2023/04/14 00:41:53;;;;;;;1.20;1.13;;;;;;;9.87;82.12;98180.59;5113836;28;20247;-74
2023/04/14 00:44:21;;;;;;;3.07;1.70;;;;;;;9.90;82.36;98175.25;5113856;28;20193;-73
2023/04/14 00:46:48;;;;;;;1.83;1.17;;;;;;;9.88;83.34;98176.31;5113794;28;20232;-76
2023/04/14 00:49:17;;;;;;;1.63;1.20;;;;;;;9.75;83.06;98173.97;5113688;28;20726;-73
2023/04/14 00:51:45;;;;;;;1.70;1.33;;;;;;;9.73;83.08;98171.53;5113650;28;20197;-73
2023/04/14 00:54:14;;;;;;;1.30;1.10;;;;;;;9.87;83.05;98169.59;5113501;28;20197;-75
2023/04/14 00:56:41;;;;;;;1.20;1.00;;;;;;;9.85;82.95;98166.34;5113453;28;20248;-73
2023/04/14 00:59:09;;;;;;;2.17;1.43;;;;;;;9.80;83.37;98174.38;5113459;28;20224;-76
2023/04/14 01:01:36;;;;;;;1.70;1.10;;;;;;;9.83;83.28;98171.59;5113457;28;20193;-73
2023/04/14 01:04:03;;;;;;;2.07;1.37;;;;;;;9.83;83.60;98168.22;5113437;28;20193;-76
2023/04/14 01:06:32;;;;;;;3.47;1.50;;;;;;;9.95;83.11;98159.56;5113018;28;20197;-73
2023/04/14 01:08:59;;;;;;;1.33;1.23;;;;;;;9.95;83.51;98162.09;5113377;28;20204;-75
2023/04/14 01:11:36;;;;;;;1.50;0.93;;;;;;;9.93;81.88;98158.88;5113054;28;20673;-76
2023/04/14 01:14:10;;;;;;;2.20;1.37;;;;;;;10.01;82.42;98159.03;5113058;28;20196;-74
2023/04/14 01:16:39;;;;;;;4.03;1.57;;;;;;;9.98;81.29;98154.19;5113267;28;20213;-73
2023/04/14 01:19:24;;;;;;;0.50;0.50;;;;;;;10.25;80.40;98161.22;5113100;28;20237;-75
2023/04/14 01:22:00;;;;;;;1.20;1.10;;;;;;;10.26;80.17;98167.13;5113003;28;20724;-73
2023/04/14 01:24:40;;;;;;;1.40;1.20;;;;;;;10.27;79.64;98168.78;5113037;28;20663;-75
2023/04/14 01:27:22;;;;;;;1.43;1.07;;;;;;;10.26;79.97;98159.47;5113186;28;20217;-73
2023/04/14 01:30:02;;;;;;;1.17;0.90;;;;;;;10.23;79.92;98159.75;5113157;28;20254;-74
2023/04/14 01:32:35;;;;;;;1.00;0.80;;;;;;;10.10;80.83;98160.78;5112814;28;20226;-73
2023/04/14 01:35:08;;;;;;;0.80;0.80;;;;;;;10.16;79.95;98154.34;5113176;28;20197;-76
2023/04/14 01:37:41;;;;;;;1.20;1.10;;;;;;;10.24;79.35;98151.97;5112591;28;20233;-76
2023/04/14 01:40:12;;;;;;;1.80;1.30;;;;;;;10.24;79.12;98157.06;5112671;28;20247;-73
2023/04/14 01:42:42;;;;;;;1.70;1.27;;;;;;;10.21;79.69;98152.22;5112403;28;20230;-75
2023/04/14 01:45:12;;;;;;;1.03;0.80;;;;;;;10.22;79.35;98148.72;5113006;28;20592;-74
2023/04/14 01:47:42;;;;;;;2.73;1.20;;;;;;;10.23;79.43;98146.97;5112333;28;20224;-73
2023/04/14 01:50:11;;;;;;;2.93;1.60;;;;;;;10.06;80.38;98146.66;5112575;28;20197;-73
2023/04/14 01:52:38;;;;;;;2.03;1.40;;;;;;;10.14;80.18;98149.38;5112471;28;20336;-73
2023/04/14 01:55:08;;;;;;;2.47;1.50;;;;;;;10.05;80.76;98152.72;5112677;28;20223;-76
2023/04/14 01:57:36;;;;;;;0.97;0.90;;;;;;;10.01;80.92;98141.16;5112761;28;20213;-73
2023/04/14 02:00:06;;;;;;;1.57;1.10;;;;;;;10.03;80.87;98139.25;5112289;28;20229;-73
2023/04/14 02:02:36;;;;;;;1.63;1.13;;;;;;;10.04;80.47;98140.09;5112295;28;20219;-73
2023/04/14 02:05:08;;;;;;;1.33;1.00;;;;;;;9.93;81.92;98138.44;5112275;28;20204;-75
2023/04/14 02:07:36;;;;;;;1.90;1.50;;;;;;;9.90;82.72;98138.69;5112161;28;20225;-76
2023/04/14 02:10:06;;;;;;;2.30;1.33;;;;;;;9.96;82.97;98140.72;5112285;28;20190;-74
2023/04/14 02:12:35;;;;;;;1.40;1.10;;;;;;;9.94;82.50;98145.94;5111979;28;20213;-76
2023/04/14 02:15:03;;;;;;;2.17;1.40;;;;;;;9.77;83.46;98148.31;5112134;28;20235;-76
2023/04/14 02:17:31;;;;;;;1.70;1.13;;;;;;;9.68;84.39;98150.69;5111832;28;20217;-76
2023/04/14 02:20:00;;;;;;;1.83;1.23;;;;;;;9.53;85.19;98146.88;5112151;28;20237;-75
2023/04/14 02:22:28;;;;;;;2.00;1.50;;;;;;;9.52;85.30;98153.72;5111666;28;20213;-76
2023/04/14 02:24:55;;;;;;;3.37;1.37;;;;;;;9.37;86.09;98141.44;5111636;28;20201;-73
2023/04/14 02:27:30;;;;;;;1.33;1.13;;;;;;;9.29;86.37;98140.31;5111909;28;20213;-76
2023/04/14 02:29:59;;;;;;;2.43;1.60;;;;;;;9.51;86.57;98147.03;5111794;28;20729;-75
2023/04/14 02:32:30;;;;;;;1.37;0.97;;;;;;;9.31;87.33;98145.31;5111578;28;20236;-73
2023/04/14 02:35:02;;;;;;;2.00;1.23;;;;;;;9.38;87.60;98141.28;5111772;28;20477;-73
2023/04/14 02:37:36;;;;;;;1.37;1.00;;;;;;;9.40;88.08;98149.66;5111813;28;20209;-73
2023/04/14 02:40:11;;;;;;;2.77;1.10;;;;;;;9.48;88.42;98154.09;5111541;28;20228;-75
2023/04/14 02:42:43;;;;;;;2.20;1.30;;;;;;;9.30;89.40;98151.31;5111571;28;20225;-75
2023/04/14 02:45:26;;;;;;;1.73;1.07;;;;;;;9.33;89.23;98160.47;5111724;28;20246;-73
2023/04/14 02:47:56;;;;;;;2.10;1.50;;;;;;;9.29;88.90;98154.81;5110547;28;20220;-74
2023/04/14 02:50:26;;;;;;;1.07;0.97;;;;;;;9.43;88.24;98161.34;5111148;28;20204;-76
2023/04/14 02:52:56;;;;;;;1.30;1.17;;;;;;;9.40;88.70;98157.28;5111309;28;20278;-75
2023/04/14 02:55:24;;;;;;;1.77;1.33;;;;;;;9.41;88.57;98163.19;5111354;28;20197;-73
2023/04/14 02:57:52;;;;;;;0.87;0.83;;;;;;;9.31;89.42;98168.25;5111334;28;20582;-75
2023/04/14 03:00:20;;;;;;;2.47;1.13;;;;;;;9.25;90.87;98161.91;5111233;28;20238;-75
2023/04/14 03:02:49;;;;;;;2.63;1.20;;;;;;;9.14;91.52;98161.97;5111089;28;20213;-73
2023/04/14 03:05:16;;;;;;;1.47;1.17;;;;;;;8.98;92.37;98157.28;5110966;28;20189;-73
2023/04/14 03:07:44;;;;;;;1.80;1.27;;;;;;;9.02;92.26;98157.88;5110994;28;20225;-74
2023/04/14 03:10:12;;;;;;;1.30;1.00;;;;;;;8.99;92.41;98156.38;5111319;28;20232;-75
2023/04/14 03:12:40;;;;;;;2.67;1.40;;;;;;;8.92;93.02;98162.09;5110731;28;20497;-73
2023/04/14 03:15:09;;;;;;;1.30;1.00;;;;;;;8.81;93.75;98155.28;5110867;28;20193;-75
2023/04/14 03:17:37;;;;;;;1.47;0.83;;;;;;;8.79;94.01;98147.78;5110697;28;20654;-73
2023/04/14 03:20:04;;;;;;;1.90;1.17;;;;;;;8.70;95.08;98143.41;5110840;28;20726;-73
2023/04/14 03:22:35;;;;;;;0.87;0.83;;;;;;;8.67;94.11;98138.56;5110585;28;20225;-73
2023/04/14 03:25:02;;;;;;;0.87;0.83;;;;;;;8.63;94.85;98142.28;5110775;28;20215;-75
2023/04/14 03:27:31;;;;;;;1.70;0.90;;;;;;;8.72;93.86;98145.81;5110487;28;20232;-75
2023/04/14 03:30:03;;;;;;;2.40;1.53;;;;;;;8.74;93.09;98149.06;5111038;28;20583;-75
2023/04/14 03:32:34;;;;;;;0.97;0.93;;;;;;;8.82;93.52;98146.72;5110323;28;20773;-74
2023/04/14 03:35:02;;;;;;;1.30;1.20;;;;;;;8.77;92.79;98144.53;5110618;28;20581;-72
2023/04/14 03:37:31;;;;;;;1.23;1.03;;;;;;;8.75;93.17;98136.19;5110638;28;20225;-75
2023/04/14 03:40:04;;;;;;;1.50;1.27;;;;;;;8.78;93.46;98137.69;5110469;28;20702;-72
2023/04/14 03:42:35;;;;;;;1.27;1.00;;;;;;;8.71;93.75;98134.03;5110409;28;20308;-72
2023/04/14 03:45:04;;;;;;;3.97;1.37;;;;;;;8.74;92.84;98134.59;5110612;28;20204;-75
2023/04/14 03:47:31;;;;;;;1.43;1.07;;;;;;;8.86;93.00;98126.88;5110416;28;20216;-75
2023/04/14 03:50:00;;;;;;;1.30;1.17;;;;;;;8.76;94.08;98126.84;5110189;28;20193;-73
2023/04/14 03:52:30;;;;;;;2.03;1.20;;;;;;;8.78;93.28;98128.31;5110094;28;20213;-72
2023/04/14 03:55:04;;;;;;;1.40;1.30;;;;;;;8.70;93.70;98128.13;5110417;28;20592;-74
2023/04/14 03:57:36;;;;;;;1.00;0.90;;;;;;;8.67;94.72;98125.81;5110395;28;20650;-75
2023/04/14 04:00:07;;;;;;;1.80;1.37;;;;;;;8.65;94.43;98135.31;5109106;28;20304;-75
2023/04/14 04:02:35;;;;;;;2.30;1.50;;;;;;;8.79;94.04;98127.38;5110031;28;20220;-74
2023/04/14 04:05:02;;;;;;;1.00;0.87;;;;;;;8.84;94.19;98132.09;5110351;28;20221;-73
2023/04/14 04:07:31;;;;;;;1.03;1.00;;;;;;;8.78;94.08;98135.94;5110064;28;20650;-74
2023/04/14 04:09:59;;;;;;;1.87;1.43;;;;;;;8.80;94.19;98134.09;5110204;28;20293;-73
2023/04/14 04:12:27;;;;;;;1.63;1.10;;;;;;;9.02;93.71;98137.47;5110058;28;20239;-74
2023/04/14 04:14:55;;;;;;;1.37;0.80;;;;;;;8.96;93.75;98127.75;5110078;28;20197;-72
2023/04/14 04:17:24;;;;;;;1.00;0.83;;;;;;;8.91;94.16;98122.25;5110062;28;20609;-73
2023/04/14 04:19:53;;;;;;;1.40;1.17;;;;;;;8.83;95.18;98123.66;5109937;28;20233;-75
2023/04/14 04:22:23;;;;;;;1.17;0.97;;;;;;;8.88;94.83;98125.03;5110262;28;20213;-74
2023/04/14 04:24:51;;;;;;;3.07;0.87;;;;;;;8.88;94.95;98119.94;5110258;28;20649;-75
2023/04/14 04:27:19;;;;;;;1.93;1.03;;;;;;;9.08;93.44;98126.78;5109825;28;20697;-72
2023/04/14 04:29:46;;;;;;;0.47;0.47;;;;;;;9.20;93.62;98125.78;5110062;28;20197;-72
2023/04/14 04:32:14;;;;;;;0.87;0.53;;;;;;;9.23;93.63;98122.16;5109966;28;20282;-73
2023/04/14 04:34:41;;;;;;;1.10;1.00;;;;;;;9.27;93.15;98119.22;5109743;28;20675;-73
2023/04/14 04:37:10;;;;;;;1.60;1.00;;;;;;;9.41;94.80;98107.06;5109633;28;20278;-73
2023/04/14 04:39:36;;;;;;;1.90;1.13;;;;;;;9.33;94.51;98100.06;5109743;28;20221;-75
2023/04/14 04:42:04;;;;;;;0.53;0.53;;;;;;;9.49;94.70;98102.16;5109755;28;20248;-73
2023/04/14 04:44:32;;;;;;;1.77;1.30;;;;;;;9.60;94.00;98096.97;5109851;28;20213;-73
2023/04/14 04:46:59;;;;;;;1.00;0.97;;;;;;;9.86;93.00;98096.47;5109711;28;20709;-73
2023/04/14 04:49:28;;;;;;;0.83;0.83;;;;;;;10.15;93.25;98096.53;5109561;28;20209;-74
2023/04/14 04:51:55;;;;;;;1.57;1.20;;;;;;;10.29;91.51;98097.94;5109554;28;20217;-75
2023/04/14 04:54:22;;;;;;;1.57;1.40;;;;;;;10.50;91.97;98101.19;5109456;28;20217;-73
2023/04/14 04:56:49;;;;;;;1.80;1.13;;;;;;;10.76;90.92;98092.94;5109739;28;20669;-74
2023/04/14 04:59:16;;;;;;;2.20;1.57;;;;;;;10.90;89.81;98089.97;5109525;28;20266;-73
2023/04/14 05:01:43;;;;;;;1.20;1.10;;;;;;;11.05;90.30;98075.81;5109499;28;20194;-73
2023/04/14 05:04:10;;;;;;;1.07;1.03;;;;;;;11.33;87.35;98068.19;5109430;28;20198;-73
2023/04/14 05:06:38;;;;;;;1.33;1.20;;;;;;;11.32;86.41;98071.69;5109538;28;20212;-75
2023/04/14 05:09:06;;;;;;;1.30;1.03;;;;;;;11.47;84.71;98077.97;5109448;28;20201;-73
2023/04/14 05:11:33;;;;;;;1.80;1.40;;;;;;;11.69;83.03;98078.53;5111611;28;20454;-73
2023/04/14 05:14:00;;;;;;;1.33;1.23;;;;;;;11.95;82.79;98091.50;5113189;28;20197;-73
2023/04/14 05:16:28;;;;;;;1.37;1.13;;;;;;;12.12;80.40;98089.91;5113240;28;20209;-72
2023/04/14 05:18:55;;;;;;;1.73;1.40;;;;;;;12.48;80.76;98087.34;5113717;28;20220;-75
2023/04/14 05:21:22;;;;;;;1.83;1.30;;;;;;;12.68;79.55;98086.22;5112985;28;20233;-73
2023/04/14 05:23:50;;;;;;;2.10;1.57;;;;;;;13.00;77.03;98088.25;5113256;28;20221;-73
2023/04/14 05:26:17;;;;;;;2.77;1.10;;;;;;;13.24;75.91;98082.44;5113490;28;20442;-74
2023/04/14 05:28:44;;;;;;;1.70;1.50;;;;;;;13.43;73.80;98085.75;5112901;28;20223;-73
2023/04/14 05:31:11;;;;;;;1.47;1.10;;;;;;;13.61;75.83;98094.19;5113504;28;20213;-76
2023/04/14 05:33:38;;;;;;;2.63;1.50;;;;;;;13.96;75.78;98089.81;5112750;27;20219;-75
2023/04/14 05:36:06;;;;;;;2.57;1.50;;;;;;;13.86;74.42;98094.28;5113094;28;20212;-76
2023/04/14 05:38:32;;;;;;;3.63;1.70;;;;;;;13.99;73.30;98092.88;5112735;28;20215;-74
2023/04/14 05:41:01;;;;;;;2.23;1.53;;;;;;;14.26;74.97;98094.38;5112612;28;20262;-75
2023/04/14 05:43:28;;;;;;;2.53;1.60;;;;;;;14.13;71.71;98096.59;5112802;28;20257;-76
2023/04/14 05:45:57;;;;;;;2.40;1.60;;;;;;;14.21;72.33;98095.81;5112826;28;20207;-76
2023/04/14 05:48:26;;;;;;;1.73;1.27;;;;;;;14.16;71.64;98096.28;5112754;28;20220;-76
2023/04/14 05:50:53;;;;;;;2.30;1.43;;;;;;;14.59;70.41;98091.84;5112809;28;20297;-73
2023/04/14 05:53:19;;;;;;;1.73;1.40;;;;;;;14.76;69.05;98089.28;5112963;28;20590;-73
2023/04/14 05:55:47;;;;;;;2.17;1.57;;;;;;;14.45;67.89;98082.97;5112664;28;20200;-73
2023/04/14 05:58:15;;;;;;;1.90;1.30;;;;;;;14.15;68.81;98081.81;5112545;28;20300;-74
2023/04/14 06:00:42;;;;;;;1.03;0.93;;;;;;;14.22;69.44;98082.81;5112394;28;20225;-73
2023/04/14 06:03:09;;;;;;;4.37;1.47;;;;;;;14.22;70.49;98075.09;5112321;28;20629;-76
2023/04/14 06:05:35;;;;;;;2.30;1.40;;;;;;;14.49;70.63;98073.19;5112442;28;20205;-76
2023/04/14 06:08:02;;;;;;;1.80;1.30;;;;;;;14.68;72.29;98075.44;5112175;28;20229;-76
2023/04/14 06:10:30;;;;;;;2.00;1.43;;;;;;;14.85;70.40;98072.88;5112372;28;20197;-76
2023/04/14 06:12:57;;;;;;;1.60;1.40;;;;;;;15.09;68.75;98070.25;5111938;28;20228;-76
2023/04/14 06:15:28;;;;;;;2.50;1.50;;;;;;;15.55;70.46;98067.84;5111957;28;20677;-76
2023/04/14 06:17:55;;;;;;;3.30;1.30;;;;;;;15.95;69.70;98068.66;5111899;28;20282;-76
2023/04/14 06:20:22;;;;;;;2.67;1.83;;;;;;;16.00;67.55;98066.38;5111981;28;20233;-73
2023/04/14 06:22:49;;;;;;;3.20;1.73;;;;;;;15.71;70.13;98058.50;5110980;28;20221;-76
2023/04/14 06:25:15;;;;;;;2.00;1.53;;;;;;;16.07;70.37;98051.81;5111999;28;20245;-76
2023/04/14 06:27:42;;;;;;;3.20;1.87;;;;;;;16.14;67.08;98051.94;5111675;28;20704;-74
2023/04/14 06:30:10;;;;;;;1.70;1.30;;;;;;;16.62;64.11;98049.16;5111981;28;20197;-73
2023/04/14 06:32:38;;;;;;;1.67;1.20;;;;;;;16.11;65.29;98054.06;5112226;28;20217;-73
2023/04/14 06:35:06;;;;;;;3.30;1.93;;;;;;;16.03;64.24;98050.56;5112036;28;20201;-73
2023/04/14 06:37:33;;;;;;;3.43;1.63;;;;;;;16.32;65.17;98050.84;5111662;28;20214;-76
2023/04/14 06:40:00;;;;;;;2.77;1.70;;;;;;;16.65;66.48;98043.66;5111766;28;20221;-74
2023/04/14 06:42:27;;;;;;;2.50;1.90;;;;;;;16.71;67.18;98045.53;5111446;28;20224;-76
2023/04/14 06:44:53;;;;;;;2.17;1.70;;;;;;;16.51;67.17;98045.22;5111790;28;20201;-74
2023/04/14 06:47:21;;;;;;;1.80;1.47;;;;;;;16.59;65.94;98052.09;5111274;28;20220;-76
2023/04/14 06:49:50;;;;;;;2.67;1.50;;;;;;;15.99;61.68;98057.03;5111503;28;20693;-74
2023/04/14 06:52:16;;;;;;;2.73;1.40;;;;;;;15.57;61.74;98053.03;5111365;28;20764;-77
2023/04/14 06:54:43;;;;;;;2.00;1.40;;;;;;;15.58;61.25;98053.84;5111314;28;20568;-77
2023/04/14 06:57:10;;;;;;;2.40;1.60;;;;;;;15.38;64.05;98058.56;5111346;28;20237;-73
2023/04/14 06:59:37;;;;;;;1.33;1.10;;;;;;;15.72;61.80;98054.94;5111308;28;20593;-77
2023/04/14 07:02:05;;;;;;;2.43;1.57;;;;;;;15.43;64.31;98069.19;5111356;28;20308;-73
2023/04/14 07:04:31;;;;;;;1.53;1.33;;;;;;;15.44;63.96;98068.22;5110993;28;20569;-74
2023/04/14 07:07:02;;;;;;;2.33;1.60;;;;;;;15.56;63.46;98059.16;5111074;28;20480;-75
2023/04/14 07:09:29;;;;;;;2.40;1.70;;;;;;;16.01;62.30;98062.03;5110874;28;20202;-77
2023/04/14 07:11:57;;;;;;;3.97;1.27;;;;;;;16.05;62.05;98035.72;5111080;28;20706;-78
2023/04/14 07:14:23;;;;;;;2.77;1.70;;;;;;;15.87;61.88;98009.41;5110568;28;20296;-77
2023/04/14 07:16:51;;;;;;;1.93;1.33;;;;;;;16.00;61.82;97996.78;5110827;28;20712;-73
2023/04/14 07:19:17;;;;;;;1.07;0.90;;;;;;;15.92;62.16;97996.81;5110845;28;20683;-75
2023/04/14 07:21:45;;;;;;;1.77;1.23;;;;;;;15.87;62.52;98004.25;5110655;28;20233;-74
2023/04/14 07:24:13;;;;;;;2.40;1.73;;;;;;;15.95;71.88;97983.59;5110732;28;20223;-77
2023/04/14 07:26:41;;;;;;;3.17;2.40;;;;;;;16.18;72.43;97977.63;5110933;28;20260;-73
2023/04/14 07:29:08;;;;;;;4.30;2.57;;;;;;;16.15;72.42;97983.13;5110715;28;20207;-76
2023/04/14 07:31:36;;;;;;;3.57;2.37;;;;;;;16.21;70.38;97982.44;5110850;28;20197;-77
2023/04/14 07:34:03;;;;;;;3.30;2.47;;;;;;;16.30;72.57;97973.66;5110365;28;20288;-73
2023/04/14 07:36:31;;;;;;;4.03;2.20;;;;;;;16.67;71.08;97966.84;5110419;28;20200;-77
2023/04/14 07:38:57;;;;;;;2.87;1.70;;;;;;;16.92;70.13;97955.28;5110469;28;20610;-76
2023/04/14 07:41:26;;;;;;;5.43;2.20;;;;;;;17.01;66.28;97953.41;5110456;28;20240;-78
2023/04/14 07:43:56;;;;;;;1.90;1.70;;;;;;;17.17;67.98;97945.50;5110526;28;20226;-73
2023/04/14 07:46:23;;;;;;;3.20;2.17;;;;;;;17.11;68.21;97948.00;5110087;28;20202;-77
2023/04/14 07:48:50;;;;;;;3.70;2.27;;;;;;;17.23;66.76;97956.09;5110384;28;20213;-73
2023/04/14 07:51:17;;;;;;;4.77;2.33;;;;;;;17.37;65.98;97953.47;5110430;28;20684;-77
2023/04/14 07:53:44;;;;;;;3.67;2.30;;;;;;;17.47;68.71;97947.19;5110434;28;20214;-77
2023/04/14 07:56:11;;;;;;;3.47;1.90;;;;;;;17.56;65.27;97935.75;5110108;28;20197;-73
2023/04/14 07:58:39;;;;;;;4.70;2.23;;;;;;;17.50;66.30;97908.06;5110313;28;20721;-78
2023/04/14 08:01:06;;;;;;;3.07;2.40;;;;;;;17.45;65.36;97907.81;5110492;28;20293;-77
2023/04/14 08:03:35;;;;;;;4.00;2.10;;;;;;;17.24;67.12;97901.63;5110054;28;20223;-73
2023/04/14 08:06:01;;;;;;;4.50;2.40;;;;;;;17.10;68.24;97890.34;5110011;28;20197;-73
2023/04/14 08:08:28;;;;;;;3.40;2.27;;;;;;;17.02;66.73;97892.28;5110404;28;20236;-74
2023/04/14 08:10:55;;;;;;;4.77;2.20;;;;;;;16.88;70.57;97902.44;5110365;28;20234;-73
2023/04/14 08:13:22;;;;;;;3.93;2.20;;;;;;;16.78;71.15;97896.72;5109982;28;20225;-78
2023/04/14 08:15:50;;;;;;;2.60;1.97;;;;;;;17.16;70.22;97891.41;5109823;28;20201;-76
2023/04/14 08:18:18;;;;;;;3.47;2.20;;;;;;;17.29;71.52;97883.81;5109923;28;20267;-74
2023/04/14 08:20:44;;;;;;;4.40;2.40;;;;;;;17.21;71.18;97896.84;5109855;28;20740;-77
2023/04/14 08:23:11;;;;;;;4.53;2.70;;;;;;;17.15;73.27;97907.91;5109947;28;20222;-78
2023/04/14 08:25:38;;;;;;;5.73;2.90;;;;;;;17.29;71.64;97894.16;5110000;28;20213;-73
2023/04/14 08:28:05;;;;;;;3.60;2.60;;;;;;;17.19;70.54;97891.03;5109814;28;20227;-73
2023/04/14 08:30:32;;;;;;;3.57;2.47;;;;;;;17.19;71.33;97929.78;5110305;28;20202;-78
2023/04/14 08:33:00;;;;;;;3.30;2.47;;;;;;;16.73;72.39;97948.06;5109751;28;20236;-76
2023/04/14 08:35:27;;;;;;;4.03;2.20;;;;;;;16.48;73.19;97932.03;5110021;28;20200;-78
2023/04/14 08:37:54;;;;;;;2.87;2.10;;;;;;;16.51;75.78;97927.31;5110074;28;20592;-78
2023/04/14 08:40:22;;;;;;;5.53;1.97;;;;;;;16.48;74.34;97947.53;5109745;28;20201;-73
2023/04/14 08:42:49;;;;;;;3.10;1.60;;;;;;;16.05;76.19;97963.50;5109934;28;20224;-79
2023/04/14 08:45:18;;;;;;;3.03;2.17;;;;;;;16.12;77.02;97973.97;5109852;28;20193;-74
2023/04/14 08:47:47;;;;;;;4.00;2.40;;;;;;;16.33;78.30;97980.22;5113782;28;20227;-73
2023/04/14 08:50:18;;;;;;;3.33;2.20;;;;;;;16.38;77.33;97978.75;5113661;28;20202;-73
2023/04/14 08:52:46;;;;;;;4.03;2.27;;;;;;;16.40;77.97;97966.44;5113674;28;20225;-74
2023/04/14 08:55:15;;;;;;;3.27;2.00;;;;;;;16.15;76.94;97963.28;5113869;28;20214;-78
2023/04/14 08:57:45;;;;;;;2.57;1.80;;;;;;;16.24;78.72;97962.25;5113694;27;20235;-78
2023/04/14 09:00:14;;;;;;;2.80;2.00;;;;;;;16.37;78.26;97958.25;5113954;28;20197;-78
2023/04/14 09:02:41;;;;;;;4.30;2.30;;;;;;;16.32;77.45;97963.97;5113878;28;20221;-75
2023/04/14 09:05:10;;;;;;;4.47;2.43;;;;;;;16.50;77.69;97948.94;5113528;28;20203;-77
2023/04/14 09:07:39;;;;;;;3.07;1.97;;;;;;;16.62;77.54;97935.63;5113394;28;20220;-69
2023/04/14 09:10:08;;;;;;;3.00;1.90;;;;;;;16.79;78.29;97939.66;5113542;28;20215;-73
2023/04/14 09:12:36;;;;;;;2.37;1.80;;;;;;;16.88;78.61;97917.91;5113381;28;20225;-79
2023/04/14 09:15:03;;;;;;;3.30;2.17;;;;;;;17.05;78.84;97915.94;5113237;28;20212;-78
2023/04/14 09:17:31;;;;;;;3.03;1.97;;;;;;;17.07;78.75;97923.50;5113214;28;20224;-73
2023/04/14 09:19:58;;;;;;;2.83;1.93;;;;;;;17.22;79.09;97944.97;5113332;28;20718;-73
2023/04/14 09:22:25;;;;;;;4.93;1.90;;;;;;;17.29;78.88;97950.97;5113001;28;20709;-73
2023/04/14 09:24:54;;;;;;;2.47;1.87;;;;;;;17.28;78.81;97954.56;5112827;28;20211;-72
2023/04/14 09:27:20;;;;;;;3.87;2.40;;;;;;;17.23;78.96;97951.72;5113121;28;20219;-77
2023/04/14 09:29:49;;;;;;;2.93;2.00;;;;;;;17.27;79.28;97945.19;5113068;28;20204;-73
2023/04/14 09:32:15;;;;;;;4.97;2.20;;;;;;;17.33;79.85;97936.72;5112912;28;20271;-78
2023/04/14 09:34:51;;;;;;;3.37;1.93;;;;;;;17.31;79.54;97928.34;5112729;28;20203;-73
2023/04/14 09:37:18;;;;;;;3.10;2.13;;;;;;;17.25;80.31;97923.94;5112927;27;20249;-73
2023/04/14 09:39:49;;;;;;;3.43;2.10;;;;;;;17.30;81.24;97921.56;5113098;28;20237;-72
2023/04/14 09:42:18;;;;;;;2.70;2.00;;;;;;;17.25;81.82;97923.94;5112723;28;20263;-73
2023/04/14 09:44:55;;;;;;;5.33;1.80;;;;;;;17.21;83.19;97925.25;5112715;28;20198;-73
2023/04/14 09:47:23;;;;;;;2.87;1.90;;;;;;;17.25;82.33;97917.94;5112832;28;20304;-78
2023/04/14 09:49:57;;;;;;;4.13;2.07;;;;;;;17.45;82.34;97929.28;5112610;28;20694;-73
2023/04/14 09:52:38;;;;;;;2.97;1.97;;;;;;;17.51;81.55;97926.00;5112514;28;20221;-77
2023/04/14 09:55:07;;;;;;;3.00;2.17;;;;;;;17.79;80.35;97931.25;5112730;28;20221;-78
2023/04/14 09:57:37;;;;;;;3.37;1.87;;;;;;;17.95;79.52;97930.19;5112291;28;20315;-78
2023/04/14 10:00:17;;;;;;;5.33;2.40;;;;;;;18.08;79.49;97926.91;5112731;28;20630;-73
2023/04/14 10:02:48;;;;;;;2.33;2.07;;;;;;;18.39;76.70;97941.28;5112233;28;20241;-81
2023/04/14 10:05:15;;;;;;;2.67;2.07;;;;;;;18.33;77.99;97938.44;5112567;28;20612;-73
2023/04/14 10:07:42;;;;;;;3.23;2.07;;;;;;;18.57;75.07;97939.00;5112202;28;20357;-80
2023/04/14 10:10:12;;;;;;;3.67;2.27;;;;;;;18.79;74.86;97944.91;5112121;28;20201;-77
2023/04/14 10:12:43;;;;;;;3.17;2.27;;;;;;;18.81;73.55;97932.59;5112230;28;20294;-77
2023/04/14 10:15:11;;;;;;;2.57;2.07;;;;;;;19.08;72.50;97930.94;5112167;28;20204;-74
2023/04/14 10:17:38;;;;;;;2.63;2.10;;;;;;;19.17;71.55;97937.53;5111976;28;20229;-73
2023/04/14 10:20:06;;;;;;;2.13;1.67;;;;;;;19.23;69.46;97943.72;5112036;28;20193;-74
2023/04/14 10:22:34;;;;;;;2.87;1.60;;;;;;;19.30;69.87;97939.34;5111956;28;20231;-77
2023/04/14 10:25:01;;;;;;;1.87;1.40;;;;;;;19.55;67.90;97947.41;5111903;28;20210;-78
2023/04/14 10:27:30;;;;;;;1.43;1.20;;;;;;;19.68;65.79;97946.66;5112088;28;20217;-74
2023/04/14 10:29:59;;;;;;;3.47;1.90;;;;;;;19.92;66.25;97947.09;5111924;28;20194;-74
2023/04/14 10:32:31;;;;;;;3.33;2.10;;;;;;;20.12;63.11;97946.09;5111736;28;20236;-78
2023/04/14 10:35:04;;;;;;;2.90;2.13;;;;;;;20.42;64.24;97950.88;5111799;28;20260;-79
2023/04/14 10:37:31;;;;;;;2.70;1.60;;;;;;;20.71;62.56;97957.47;5111831;28;20284;-78
2023/04/14 10:40:00;;;;;;;3.57;1.73;;;;;;;20.80;63.56;97955.44;5111476;28;20574;-79
2023/04/14 10:42:31;;;;;;;1.50;1.37;;;;;;;20.72;61.15;97947.84;5111716;28;20321;-74
2023/04/14 10:45:07;;;;;;;3.33;1.67;;;;;;;20.94;61.10;97966.56;5111699;28;20442;-74
2023/04/14 10:47:35;;;;;;;2.87;2.20;;;;;;;21.05;58.31;97970.34;5111417;28;20270;-78
2023/04/14 10:50:13;;;;;;;2.83;1.73;;;;;;;21.08;56.61;97954.34;5111394;28;20217;-75
2023/04/14 10:52:49;;;;;;;2.27;1.60;;;;;;;21.35;55.45;97955.81;5111270;28;20228;-79
2023/04/14 10:55:16;;;;;;;3.33;1.83;;;;;;;21.16;56.73;97954.09;5111675;28;20195;-74
2023/04/14 10:57:45;;;;;;;2.03;1.33;;;;;;;21.39;54.38;97954.44;5111433;28;20234;-74
2023/04/14 11:00:25;;;;;;;2.03;1.70;;;;;;;21.58;50.08;97951.91;5111223;28;20215;-74
2023/04/14 11:02:56;;;;;;;1.90;1.30;;;;;;;21.72;47.83;97947.44;5111232;28;20236;-79
2023/04/14 11:05:23;;;;;;;1.73;1.40;;;;;;;21.60;48.03;97949.91;5110980;28;20205;-74
2023/04/14 11:07:57;;;;;;;5.23;1.97;;;;;;;21.63;48.72;97947.69;5111015;28;20216;-77
2023/04/14 11:10:30;;;;;;;2.90;1.40;;;;;;;21.86;47.41;97934.13;5110717;28;20251;-74
2023/04/14 11:13:01;;;;;;;3.13;1.57;;;;;;;22.27;46.14;97940.63;5111290;28;20227;-75
2023/04/14 11:16:01;;;;;;;2.47;1.50;;;;;;;22.36;46.06;97944.53;5110848;28;20204;-74
2023/04/14 11:18:37;;;;;;;2.03;1.52;;;;;;;22.41;44.97;97935.31;5110711;28;20213;-79
2023/04/14 11:21:05;;;;;;;1.60;1.40;;;;;;;22.85;44.42;97933.44;5111164;28;20189;-75
2023/04/14 11:23:32;;;;;;;1.65;1.40;;;;;;;22.86;43.82;97933.22;5111282;28;20214;-74
2023/04/14 11:26:00;;;;;;;4.03;1.63;;;;;;;22.99;44.28;97932.31;5110817;28;20603;-78
2023/04/14 11:28:29;;;;;;;2.10;1.58;;;;;;;23.21;43.65;97927.41;5110489;28;20221;-75
2023/04/14 11:30:59;;;;;;;1.85;1.35;;;;;;;23.18;43.57;97917.41;5110886;28;20272;-80
2023/04/14 11:33:30;;;;;;;1.65;1.38;;;;;;;22.90;44.09;97917.97;5110488;28;20218;-79
2023/04/14 11:35:57;;;;;;;2.22;1.80;;;;;;;22.89;45.17;97926.78;5110567;28;20208;-79
2023/04/14 11:38:24;;;;;;;1.65;1.48;;;;;;;22.73;44.09;97922.94;5110624;28;20661;-74
2023/04/14 11:40:52;;;;;;;1.63;1.35;;;;;;;22.82;43.43;97925.03;5110595;28;20202;-79
2023/04/14 11:43:19;;;;;;;2.70;1.55;;;;;;;22.91;43.51;97914.31;5110348;28;20232;-75